Time;durP1;ratioP1;P1;durP2;ratioP2;P2;SDS_P1;SDS_P2;PMS_P1;PMS_P2;Temp;Humidity;BMP_temperature;BMP_pressure;BME280_temperature;BME280_humidity;BME280_pressure;Samples;Min_cycle;Max_cycle;Signal;HPM_P1;HPM_P2
2023/09/23 00:03:47;;;;;;;3.22;1.10;;;22.50;82.50;;;;;;10517064;28;20051;-37
2023/09/23 00:08:50;;;;;;;;;;;22.40;82.30;;;;;;10513102;28;20550;-37
2023/09/23 00:13:53;;;;;;;;;;;22.50;82.40;;;;;;10527572;28;19927;-35
2023/09/23 00:18:56;;;;;;;4.55;1.17;;;22.30;78.50;;;;;;10526337;28;20281;-35
2023/09/23 00:24:00;;;;;;;3.10;1.05;;;21.70;87.50;;;;;;10521839;28;20496;-32
2023/09/23 00:29:04;;;;;;;2.08;0.80;;;22.30;83.90;;;;;;10521318;28;20059;-33
2023/09/23 00:34:06;;;;;;;1.38;0.77;;;22.40;83.10;;;;;;10521671;28;20043;-31
2023/09/23 00:39:09;;;;;;;2.92;1.05;;;22.40;82.50;;;;;;10518759;28;20492;-34
2023/09/23 00:44:13;;;;;;;1.95;0.77;;;22.30;82.80;;;;;;10524416;28;20113;-37
2023/09/23 00:49:15;;;;;;;1.35;0.68;;;22.40;82.70;;;;;;10528535;28;20477;-38
2023/09/23 00:54:21;;;;;;;1.38;0.70;;;22.40;82.50;;;;;;10523054;28;20075;-36
2023/09/23 00:59:24;;;;;;;1.88;0.90;;;22.30;82.90;;;;;;10521681;28;20044;-35
2023/09/23 01:04:26;;;;;;;4.22;0.88;;;22.40;82.70;;;;;;10526545;28;20048;-36
2023/09/23 01:09:29;;;;;;;2.95;0.90;;;22.40;82.60;;;;;;10522621;28;20072;-38
2023/09/23 01:14:33;;;;;;;2.03;0.65;;;22.40;82.60;;;;;;10511820;28;20068;-34
2023/09/23 01:19:34;;;;;;;1.02;0.50;;;22.30;82.60;;;;;;10523799;28;20587;-35
2023/09/23 01:24:38;;;;;;;1.25;0.70;;;22.30;82.60;;;;;;10525180;28;20603;-39
2023/09/23 01:29:41;;;;;;;1.83;0.85;;;22.30;82.40;;;;;;10521529;28;20149;-38
2023/09/23 01:34:42;;;;;;;2.00;0.93;;;22.40;82.30;;;;;;10509522;28;20473;-33
2023/09/23 01:39:47;;;;;;;1.63;0.68;;;22.30;82.10;;;;;;10507681;28;20140;-31
2023/09/23 01:44:50;;;;;;;3.53;0.73;;;22.30;82.50;;;;;;10523533;28;20044;-38
2023/09/23 01:49:52;;;;;;;1.40;0.85;;;21.70;83.50;;;;;;10523513;28;20063;-37
2023/09/23 01:54:56;;;;;;;1.13;0.60;;;22.20;83.20;;;;;;10518374;28;20642;-35
2023/09/23 01:59:58;;;;;;;0.93;0.50;;;22.00;84.30;;;;;;10518127;28;20063;-39
2023/09/23 02:05:00;;;;;;;0.60;0.30;;;22.20;83.00;;;;;;10515588;28;20055;-36
2023/09/23 02:10:03;;;;;;;;;;;22.20;82.50;;;;;;10516606;28;20856;-39
2023/09/23 02:15:06;;;;;;;1.05;0.60;;;22.30;82.40;;;;;;10519624;28;20588;-41
2023/09/23 02:20:11;;;;;;;2.10;0.70;;;22.20;82.30;;;;;;10525274;28;20052;-36
2023/09/23 02:25:16;;;;;;;3.97;0.60;;;22.20;82.20;;;;;;10505288;28;20142;-37
2023/09/23 02:30:18;;;;;;;0.95;0.60;;;22.10;82.50;;;;;;10517142;28;20048;-37
2023/09/23 02:35:20;;;;;;;2.17;0.50;;;22.20;82.40;;;;;;10517849;28;20136;-38
2023/09/23 02:40:27;;;;;;;0.82;0.50;;;22.20;82.30;;;;;;10514369;28;20097;-35
2023/09/23 02:45:29;;;;;;;0.82;0.45;;;22.20;82.40;;;;;;10512716;28;20040;-31
2023/09/23 02:50:31;;;;;;;6.20;1.40;;;22.20;82.00;;;;;;10518588;28;20067;-33
2023/09/23 02:55:34;;;;;;;4.70;0.70;;;21.90;83.10;;;;;;10531481;28;20216;-27
2023/09/23 03:15:34;;;;;;;2.85;0.45;;;22.00;83.40;;;;;;10520656;27;20109;-38
2023/09/23 03:20:36;;;;;;;1.50;0.50;;;22.00;83.50;;;;;;10537307;28;20047;-35
2023/09/23 03:25:46;;;;;;;1.30;0.60;;;22.00;81.40;;;;;;10524292;28;20424;-38
2023/09/23 03:30:49;;;;;;;0.98;0.50;;;22.00;83.30;;;;;;10517981;28;20080;-35
2023/09/23 03:35:51;;;;;;;2.65;0.55;;;21.70;84.80;;;;;;10524046;28;20068;-38
2023/09/23 03:40:54;;;;;;;3.60;0.65;;;21.30;84.80;;;;;;10523997;28;20458;-33
2023/09/23 03:45:57;;;;;;;1.45;0.40;;;19.80;91.80;;;;;;10521646;28;20082;-34
2023/09/23 03:51:00;;;;;;;1.27;0.75;;;21.40;88.50;;;;;;10526421;28;20452;-37
2023/09/23 03:56:03;;;;;;;1.58;0.60;;;22.00;84.10;;;;;;10529371;28;20508;-34
2023/09/23 04:01:13;;;;;;;1.45;0.82;;;21.30;89.00;;;;;;10532086;28;20040;-34
2023/09/23 04:06:15;;;;;;;1.10;0.47;;;21.50;86.80;;;;;;10528083;28;20127;-35
2023/09/23 04:11:18;;;;;;;2.22;0.40;;;20.30;92.00;;;;;;10514865;28;20488;-36
2023/09/23 04:16:22;;;;;;;1.48;0.60;;;20.70;92.20;;;;;;10521152;28;20339;-42
2023/09/23 04:21:25;;;;;;;0.95;0.43;;;20.10;94.00;;;;;;10512675;28;20418;-35
2023/09/23 04:26:26;;;;;;;1.60;0.50;;;20.20;92.10;;;;;;10499251;28;20079;-34
2023/09/23 04:31:30;;;;;;;2.72;0.77;;;20.80;91.00;;;;;;10488903;28;20143;-36
2023/09/23 04:36:31;;;;;;;4.20;0.85;;;20.80;90.40;;;;;;10494815;28;20481;-33
2023/09/23 04:41:33;;;;;;;1.52;0.50;;;20.10;93.40;;;;;;10485533;28;20058;-35
2023/09/23 04:46:37;;;;;;;4.18;0.70;;;20.00;93.70;;;;;;10493488;28;20090;-34
2023/09/23 04:51:39;;;;;;;2.28;0.60;;;19.40;94.50;;;;;;10492703;28;20044;-38
2023/09/23 04:56:41;;;;;;;;;;;18.80;96.60;;;;;;10486660;28;20048;-34
2023/09/23 05:01:45;;;;;;;2.75;0.77;;;18.90;97.10;;;;;;10482847;28;20262;-37
2023/09/23 05:06:46;;;;;;;1.80;0.60;;;17.20;99.90;;;;;;10501434;28;20097;-37
2023/09/23 05:11:51;;;;;;;3.40;0.55;;;19.60;96.50;;;;;;10517429;28;20582;-38
2023/09/23 05:16:54;;;;;;;1.42;0.60;;;19.30;96.50;;;;;;10479889;28;20118;-36
2023/09/23 05:21:56;;;;;;;1.42;0.40;;;19.20;95.50;;;;;;10485103;28;20084;-36
2023/09/23 05:26:59;;;;;;;6.45;0.90;;;19.60;95.80;;;;;;10482775;28;20136;-37
2023/09/23 05:32:03;;;;;;;7.32;1.05;;;17.90;99.10;;;;;;10483983;28;20044;-36
2023/09/23 05:37:06;;;;;;;7.07;1.08;;;17.50;99.90;;;;;;10484485;28;20107;-36
2023/09/23 05:42:07;;;;;;;3.28;0.98;;;18.00;99.90;;;;;;10491248;28;20063;-34
2023/09/23 05:47:11;;;;;;;7.33;2.00;;;17.60;99.90;;;;;;10491062;28;20488;-33
2023/09/23 05:52:14;;;;;;;7.10;1.00;;;17.70;99.90;;;;;;10484331;28;20048;-39
2023/09/23 05:57:16;;;;;;;4.22;0.98;;;17.70;99.90;;;;;;10485583;28;20719;-35
2023/09/23 06:02:21;;;;;;;1.95;0.60;;;18.10;99.90;;;;;;10468775;28;20057;-40
2023/09/23 06:07:24;;;;;;;0.90;0.50;;;18.90;98.10;;;;;;10477569;28;20048;-36
2023/09/23 06:12:29;;;;;;;2.25;0.70;;;19.00;97.90;;;;;;10486897;28;20068;-37
2023/09/23 06:17:32;;;;;;;1.63;0.55;;;19.40;96.40;;;;;;10487167;28;20135;-33
2023/09/23 06:22:35;;;;;;;2.50;0.70;;;18.80;99.40;;;;;;10486800;28;20044;-38
2023/09/23 06:27:37;;;;;;;3.97;0.88;;;18.20;99.30;;;;;;10499534;28;20466;-34
2023/09/23 06:32:40;;;;;;;3.13;1.00;;;17.30;99.90;;;;;;10497608;28;20045;-34
2023/09/23 06:37:41;;;;;;;7.50;1.10;;;17.00;99.90;;;;;;10485307;28;20074;-38
2023/09/23 06:42:46;;;;;;;3.77;1.10;;;17.40;99.90;;;;;;10485479;28;20143;-35
2023/09/23 06:47:49;;;;;;;5.32;1.02;;;16.80;99.90;;;;;;10484821;28;20521;-36
2023/09/23 06:52:51;;;;;;;5.70;0.70;;;17.70;99.90;;;;;;10484455;28;20049;-33
2023/09/23 06:57:53;;;;;;;2.83;1.03;;;17.20;99.90;;;;;;10488612;28;20079;-36
2023/09/23 07:02:56;;;;;;;0.97;0.50;;;16.80;99.90;;;;;;10489976;28;20591;-42
2023/09/23 07:07:58;;;;;;;1.55;0.70;;;17.00;99.90;;;;;;10488687;28;20044;-35
2023/09/23 07:13:00;;;;;;;1.10;0.80;;;17.80;99.90;;;;;;10478481;28;20061;-37
2023/09/23 07:18:04;;;;;;;5.68;1.08;;;17.00;99.90;;;;;;10484701;28;20540;-36
2023/09/23 07:23:06;;;;;;;6.05;1.20;;;17.00;99.90;;;;;;10485791;28;20048;-40
2023/09/23 07:28:08;;;;;;;6.13;1.40;;;16.40;99.90;;;;;;10482355;28;20084;-36
2023/09/23 07:33:11;;;;;;;5.43;1.80;;;16.20;99.90;;;;;;10477691;28;20677;-42
2023/09/23 07:38:13;;;;;;;5.00;1.20;;;16.50;99.90;;;;;;10481643;28;20086;-40
2023/09/23 07:43:15;;;;;;;3.63;1.27;;;16.50;99.90;;;;;;10479019;28;20044;-43
2023/09/23 07:48:18;;;;;;;2.77;0.80;;;16.10;99.90;;;;;;10498737;28;20151;-35
2023/09/23 07:53:20;;;;;;;7.22;1.35;;;16.30;99.90;;;;;;10475930;28;20106;-41
2023/09/23 07:58:22;;;;;;;9.03;1.47;;;16.10;99.90;;;;;;10485068;28;20513;-34
2023/09/23 08:03:26;;;;;;;3.67;0.93;;;17.00;99.90;;;;;;10502214;28;20095;-36
2023/09/23 08:08:28;;;;;;;4.40;0.98;;;16.50;99.90;;;;;;10471494;28;20040;-38
2023/09/23 08:13:31;;;;;;;2.33;1.00;;;16.20;99.90;;;;;;10479661;28;20061;-34
2023/09/23 08:18:34;;;;;;;4.83;1.20;;;17.00;99.90;;;;;;10499252;28;20143;-35
2023/09/23 08:23:36;;;;;;;4.63;0.90;;;16.80;99.90;;;;;;10501115;28;20083;-37
2023/09/23 08:28:39;;;;;;;2.10;1.27;;;16.90;99.90;;;;;;10491290;28;20137;-35
2023/09/23 08:33:42;;;;;;;2.40;0.65;;;18.20;99.90;;;;;;10491576;28;20079;-35
2023/09/23 08:38:44;;;;;;;1.60;0.63;;;18.00;98.40;;;;;;10491753;28;20083;-36
2023/09/23 08:43:46;;;;;;;2.25;0.88;;;18.90;97.60;;;;;;10498277;28;20056;-41
2023/09/23 08:48:49;;;;;;;4.68;0.60;;;18.70;98.80;;;;;;10488050;28;20136;-36
2023/09/23 08:53:52;;;;;;;1.90;0.70;;;18.40;98.60;;;;;;10495104;28;20486;-37
2023/09/23 08:58:54;;;;;;;3.78;0.73;;;18.00;98.80;;;;;;10502673;28;20822;-32
2023/09/23 09:03:57;;;;;;;6.18;0.70;;;17.90;97.80;;;;;;10490530;28;20049;-35
2023/09/23 09:08:59;;;;;;;3.35;0.70;;;18.40;96.20;;;;;;10498229;28;20045;-38
2023/09/23 09:14:01;;;;;;;5.53;0.90;;;19.00;97.00;;;;;;10503188;28;20554;-35
2023/09/23 09:19:05;;;;;;;2.50;0.40;;;19.40;94.70;;;;;;10497087;28;20075;-36
2023/09/23 09:24:07;;;;;;;7.38;0.90;;;19.30;95.40;;;;;;10490589;28;20463;-36
2023/09/23 09:29:09;;;;;;;5.55;0.82;;;18.20;98.40;;;;;;10493369;28;20130;-39
2023/09/23 09:34:14;;;;;;;3.70;1.15;;;17.90;99.00;;;;;;10496015;28;20060;-37
2023/09/23 09:39:21;;;;;;;4.40;1.13;;;17.80;99.90;;;;;;10488419;28;20040;-38
2023/09/23 09:44:27;;;;;;;10.07;1.15;;;18.50;98.30;;;;;;10482985;28;20428;-37
2023/09/23 09:49:32;;;;;;;5.80;1.05;;;17.80;99.90;;;;;;10482132;28;20045;-40
2023/09/23 09:54:36;;;;;;;3.00;0.88;;;17.20;99.90;;;;;;10477397;28;20659;-36
2023/09/23 09:59:39;;;;;;;5.65;0.82;;;17.50;99.90;;;;;;10485673;28;20362;-39
2023/09/23 10:04:46;;;;;;;4.93;1.00;;;18.40;99.90;;;;;;10481982;28;20080;-32
2023/09/23 10:09:55;;;;;;;7.65;1.20;;;17.50;99.90;;;;;;10483060;28;20640;-39
2023/09/23 10:14:57;;;;;;;3.28;0.80;;;17.80;99.90;;;;;;10481676;28;20100;-34
2023/09/23 10:20:01;;;;;;;;;;;18.80;99.60;;;;;;10488754;28;20051;-31
2023/09/23 10:25:05;;;;;;;8.98;1.02;;;18.90;98.90;;;;;;10491249;28;19971;-40
2023/09/23 10:30:08;;;;;;;6.38;0.93;;;19.40;99.40;;;;;;10498055;28;20052;-42
2023/09/23 10:35:11;;;;;;;8.73;1.35;;;18.30;99.90;;;;;;10478075;28;20092;-39
2023/09/23 10:40:13;;;;;;;4.40;1.08;;;18.00;99.90;;;;;;10474963;28;20049;-35
2023/09/23 10:45:17;;;;;;;2.92;1.00;;;17.70;99.90;;;;;;10491382;28;20383;-36
2023/09/23 10:50:21;;;;;;;5.47;1.20;;;18.80;99.90;;;;;;10484594;28;20150;-32
2023/09/23 10:55:23;;;;;;;9.02;1.45;;;18.60;99.90;;;;;;10484285;28;20478;-33
2023/09/23 11:00:26;;;;;;;9.98;1.50;;;17.50;99.90;;;;;;10480433;28;20119;-39
2023/09/23 11:05:30;;;;;;;3.03;0.77;;;18.80;99.90;;;;;;10489078;28;20047;-37
2023/09/23 11:10:34;;;;;;;5.50;1.80;;;20.10;96.30;;;;;;10491483;28;20048;-33
2023/09/23 11:15:37;;;;;;;3.92;0.95;;;17.70;99.90;;;;;;10495379;28;20048;-34
2023/09/23 11:20:42;;;;;;;6.28;1.25;;;18.00;99.90;;;;;;10496853;28;20845;-32
2023/09/23 11:25:46;;;;;;;4.95;1.25;;;17.10;99.90;;;;;;10490333;28;20059;-40
2023/09/23 11:30:50;;;;;;;4.80;1.30;;;18.00;99.90;;;;;;10490863;28;20549;-38
2023/09/23 11:35:55;;;;;;;7.95;1.50;;;18.60;99.90;;;;;;10498495;28;20139;-38
2023/09/23 11:40:59;;;;;;;3.42;1.52;;;17.70;99.90;;;;;;10500691;28;20497;-36
2023/09/23 11:46:01;;;;;;;6.55;1.20;;;19.30;99.80;;;;;;10495938;28;20451;-41
2023/09/23 11:51:05;;;;;;;;;;;17.80;99.90;;;;;;10500413;28;21015;-38
2023/09/23 11:56:07;;;;;;;9.00;1.88;;;18.80;99.90;;;;;;10497252;28;19924;-39
2023/09/23 12:01:09;;;;;;;5.97;1.30;;;18.00;99.90;;;;;;10491391;28;20045;-36
2023/09/23 12:06:12;;;;;;;4.78;1.20;;;17.90;99.90;;;;;;10499726;28;20102;-35
2023/09/23 12:11:14;;;;;;;4.50;1.13;;;19.10;99.90;;;;;;10497401;28;20079;-33
2023/09/23 12:16:16;;;;;;;9.57;1.33;;;19.10;99.90;;;;;;10493860;28;20049;-33
2023/09/23 12:21:19;;;;;;;2.97;1.15;;;19.00;99.90;;;;;;10504794;28;20043;-37
2023/09/23 12:26:22;;;;;;;3.20;1.35;;;18.70;99.90;;;;;;10485850;28;20055;-37
2023/09/23 12:31:24;;;;;;;4.15;0.80;;;18.50;99.90;;;;;;10500326;28;20404;-33
2023/09/23 12:36:27;;;;;;;3.05;1.35;;;19.30;99.90;;;;;;10499590;28;20135;-35
2023/09/23 12:41:29;;;;;;;4.13;1.30;;;19.30;99.90;;;;;;10487118;28;20128;-38
2023/09/23 12:46:30;;;;;;;2.63;1.05;;;18.80;99.90;;;;;;10502984;28;20082;-34
2023/09/23 12:51:34;;;;;;;5.00;1.13;;;18.70;99.90;;;;;;10497886;28;20127;-33
2023/09/23 12:56:36;;;;;;;5.65;0.98;;;18.50;99.90;;;;;;10491304;28;20056;-39
2023/09/23 13:01:38;;;;;;;6.70;1.15;;;19.00;99.90;;;;;;10500815;28;20044;-33
2023/09/23 13:06:41;;;;;;;1.27;0.70;;;18.80;99.90;;;;;;10495644;28;20119;-38
2023/09/23 13:11:43;;;;;;;2.25;0.80;;;19.30;99.90;;;;;;10492069;28;20075;-35
2023/09/23 13:16:45;;;;;;;3.78;1.45;;;19.90;98.10;;;;;;10491115;28;20549;-35
2023/09/23 13:21:49;;;;;;;1.88;0.90;;;20.10;95.00;;;;;;10486246;28;20095;-33
2023/09/23 13:26:51;;;;;;;0.82;0.73;;;19.80;95.90;;;;;;10496758;28;20044;-36
2023/09/23 13:31:53;;;;;;;3.58;1.08;;;20.30;95.10;;;;;;10494859;28;20439;-36
2023/09/23 13:36:56;;;;;;;2.55;0.90;;;20.00;94.60;;;;;;10500135;28;20143;-40
2023/09/23 13:41:59;;;;;;;3.85;0.98;;;19.70;97.20;;;;;;10496385;28;20064;-39
2023/09/23 13:47:00;;;;;;;3.65;1.40;;;19.60;97.60;;;;;;10482026;28;20053;-34
2023/09/23 13:52:04;;;;;;;6.45;1.33;;;20.10;95.30;;;;;;10478231;28;20401;-38
2023/09/23 13:57:05;;;;;;;3.25;1.05;;;19.40;97.90;;;;;;10477693;28;20133;-37
2023/09/23 14:02:13;;;;;;;4.57;1.20;;;19.90;94.80;;;;;;10488675;28;20101;-35
2023/09/23 14:07:16;;;;;;;7.50;2.05;;;19.40;99.40;;;;;;10481188;28;20052;-36
2023/09/23 14:12:19;;;;;;;2.97;0.98;;;19.40;98.10;;;;;;10486224;28;20076;-33
2023/09/23 14:17:22;;;;;;;3.78;1.02;;;19.40;96.20;;;;;;10487465;28;20686;-38
2023/09/23 14:22:26;;;;;;;2.95;0.90;;;18.40;99.90;;;;;;10493757;28;20919;-38
2023/09/23 14:27:28;;;;;;;3.38;1.00;;;19.90;93.30;;;;;;10485708;28;20106;-34
2023/09/23 14:32:31;;;;;;;5.50;1.00;;;19.90;92.70;;;;;;10493843;28;20190;-32
2023/09/23 14:37:34;;;;;;;6.13;1.65;;;19.10;95.40;;;;;;10486025;28;20135;-41
2023/09/23 14:42:37;;;;;;;4.43;0.80;;;20.10;99.90;;;;;;10482034;28;20479;-39
2023/09/23 14:47:40;;;;;;;8.20;1.08;;;19.00;93.00;;;;;;10497490;28;20411;-34
2023/09/23 14:52:44;;;;;;;3.13;1.25;;;19.00;97.20;;;;;;10487608;28;20048;-35
2023/09/23 14:57:47;;;;;;;3.33;0.90;;;19.50;99.20;;;;;;10486330;28;20185;-43
2023/09/23 15:02:49;;;;;;;5.15;1.30;;;19.60;97.80;;;;;;10474833;28;20051;-37
2023/09/23 15:07:52;;;;;;;8.20;1.40;;;20.60;93.00;;;;;;10486205;28;20113;-33
2023/09/23 15:12:55;;;;;;;4.18;2.17;;;20.40;94.20;;;;;;10487026;28;20456;-35
2023/09/23 15:17:57;;;;;;;6.20;1.15;;;20.50;95.00;;;;;;10485490;28;20099;-35
2023/09/23 15:23:04;;;;;;;3.35;1.00;;;19.60;96.20;;;;;;10489720;28;20048;-32
2023/09/23 15:28:07;;;;;;;4.57;1.00;;;19.40;96.60;;;;;;10485300;28;20044;-34
2023/09/23 15:33:10;;;;;;;2.75;1.23;;;19.50;95.40;;;;;;10488399;28;20787;-34
2023/09/23 15:38:13;;;;;;;3.85;1.25;;;20.30;95.20;;;;;;10488567;28;21254;-32
2023/09/23 15:43:16;;;;;;;4.40;0.63;;;20.50;94.40;;;;;;10494396;28;20083;-43
2023/09/23 15:48:18;;;;;;;5.70;1.13;;;20.80;84.70;;;;;;10480234;28;20102;-38
2023/09/23 15:53:21;;;;;;;2.47;0.98;;;21.70;81.20;;;;;;10486206;28;20090;-55
2023/09/23 15:58:24;;;;;;;3.50;0.90;;;21.20;91.00;;;;;;10476079;28;20763;-41
2023/09/23 16:03:26;;;;;;;4.22;1.35;;;21.30;87.60;;;;;;10485748;28;20075;-41
2023/09/23 16:08:29;;;;;;;2.45;0.98;;;21.60;85.50;;;;;;10491004;28;20127;-38
2023/09/23 16:13:31;;;;;;;4.00;1.13;;;21.80;89.40;;;;;;10490273;28;20110;-35
2023/09/23 16:18:33;;;;;;;2.78;1.10;;;21.70;89.50;;;;;;10500243;28;20048;-35
2023/09/23 16:23:37;;;;;;;;;;;22.20;78.70;;;;;;10504960;28;20235;-39
2023/09/23 16:28:39;;;;;;;4.07;1.35;;;21.90;90.40;;;;;;10497665;28;19924;-32
2023/09/23 16:33:40;;;;;;;2.42;0.95;;;22.20;89.00;;;;;;10507561;28;20056;-36
2023/09/23 16:38:45;;;;;;;6.10;1.60;;;22.50;87.50;;;;;;10492632;28;20049;-30
2023/09/23 16:43:48;;;;;;;5.38;1.27;;;22.50;85.50;;;;;;10500357;28;20195;-29
2023/09/23 16:48:50;;;;;;;1.98;0.63;;;22.10;75.80;;;;;;10495242;28;20082;-35
2023/09/23 16:53:54;;;;;;;2.78;1.25;;;21.70;75.80;;;;;;10473443;28;20063;-34
2023/09/23 16:58:56;;;;;;;3.50;1.00;;;21.60;94.00;;;;;;10488085;28;20401;-34
2023/09/23 17:03:58;;;;;;;2.00;0.93;;;21.80;86.00;;;;;;10496529;28;20068;-38
2023/09/23 17:09:02;;;;;;;1.92;1.17;;;21.40;92.70;;;;;;10488191;28;20137;-35
2023/09/23 17:14:04;;;;;;;4.32;1.48;;;21.60;93.00;;;;;;10495999;28;20380;-37
2023/09/23 17:19:07;;;;;;;4.38;0.85;;;21.50;95.00;;;;;;10491725;28;20079;-39
2023/09/23 17:24:10;;;;;;;2.47;1.23;;;21.50;91.80;;;;;;10501748;28;20057;-40
2023/09/23 17:29:12;;;;;;;2.20;1.00;;;21.40;94.30;;;;;;10487165;28;20127;-31
2023/09/23 17:34:14;;;;;;;2.92;1.35;;;21.10;91.90;;;;;;10490900;28;20147;-41
2023/09/23 17:39:18;;;;;;;2.45;1.30;;;21.50;94.60;;;;;;10491050;28;20060;-39
2023/09/23 17:44:20;;;;;;;1.23;0.70;;;21.80;91.40;;;;;;10491936;28;20049;-38
2023/09/23 17:49:24;;;;;;;4.35;1.10;;;20.30;93.30;;;;;;10488292;28;20051;-33
2023/09/23 17:54:27;;;;;;;2.28;0.90;;;20.70;94.10;;;;;;10489971;28;20049;-39
2023/09/23 17:59:30;;;;;;;2.78;1.17;;;20.60;90.00;;;;;;10487188;28;20146;-39
2023/09/23 18:04:32;;;;;;;4.05;1.35;;;19.90;93.10;;;;;;10490201;28;20106;-32
2023/09/23 18:09:36;;;;;;;3.45;1.17;;;20.30;99.90;;;;;;10486346;28;20048;-32
2023/09/23 18:14:38;;;;;;;1.75;0.88;;;20.60;91.40;;;;;;10485017;28;20185;-35
2023/09/23 18:19:40;;;;;;;2.60;1.20;;;21.10;92.90;;;;;;10493572;28;20113;-35
2023/09/23 18:24:43;;;;;;;3.08;1.10;;;22.00;93.50;;;;;;10487509;28;20120;-32
2023/09/23 18:29:45;;;;;;;3.72;1.10;;;21.50;92.20;;;;;;10489799;28;20114;-40
2023/09/23 18:34:47;;;;;;;2.25;0.90;;;22.60;90.80;;;;;;10491788;28;20044;-35
2023/09/23 18:39:51;;;;;;;3.38;1.20;;;23.10;80.70;;;;;;10492243;28;20088;-31
2023/09/23 18:44:53;;;;;;;2.35;1.02;;;23.00;85.90;;;;;;10490067;28;20055;-41
2023/09/23 18:49:54;;;;;;;1.58;0.73;;;22.80;89.30;;;;;;10490958;28;20044;-39
2023/09/23 18:54:58;;;;;;;4.07;2.13;;;23.40;84.80;;;;;;10492091;28;20139;-32
2023/09/23 18:59:59;;;;;;;5.05;2.50;;;23.40;83.80;;;;;;10476160;28;20508;-39
2023/09/23 19:05:03;;;;;;;;;;;23.50;82.70;;;;;;10477355;28;20068;-30
2023/09/23 19:10:10;;;;;;;5.20;1.65;;;23.60;82.20;;;;;;10477483;28;19925;-35
2023/09/23 19:15:15;;;;;;;4.43;1.33;;;23.50;82.00;;;;;;10483498;28;20084;-38
2023/09/23 19:20:17;;;;;;;6.25;1.33;;;23.50;81.50;;;;;;10487643;28;20076;-37
2023/09/23 19:25:20;;;;;;;2.90;1.20;;;23.60;81.00;;;;;;10484287;28;20131;-32
2023/09/23 19:30:22;;;;;;;4.72;1.55;;;23.50;81.20;;;;;;10479490;28;20541;-32
2023/09/23 19:35:26;;;;;;;;;;;23.50;80.20;;;;;;10492056;28;20052;-40
2023/09/23 19:40:29;;;;;;;4.68;1.38;;;23.50;79.90;;;;;;10492812;28;20299;-34
2023/09/23 19:45:32;;;;;;;3.28;1.20;;;23.50;79.60;;;;;;10490785;28;20128;-39
2023/09/23 19:50:34;;;;;;;3.75;1.02;;;23.50;79.30;;;;;;10484745;28;20040;-42
2023/09/23 19:55:37;;;;;;;2.17;1.02;;;23.40;79.10;;;;;;10499646;28;20055;-38
2023/09/23 20:00:39;;;;;;;5.20;1.42;;;23.40;78.90;;;;;;10492914;28;20071;-36
2023/09/23 20:05:41;;;;;;;;;;;23.40;78.80;;;;;;10488884;28;20132;-34
2023/09/23 20:10:44;;;;;;;2.27;0.90;;;23.30;78.60;;;;;;10495747;28;19972;-38
2023/09/23 20:15:46;;;;;;;3.97;1.40;;;23.30;78.60;;;;;;10503565;28;20553;-33
2023/09/23 20:20:48;;;;;;;2.97;0.85;;;23.30;78.60;;;;;;10491869;28;20462;-41
2023/09/23 20:25:51;;;;;;;7.22;1.77;;;23.30;78.50;;;;;;10487429;28;20713;-34
2023/09/23 20:30:59;;;;;;;2.40;1.30;;;23.30;78.30;;;;;;10486302;28;20045;-33
2023/09/23 20:36:01;;;;;;;4.53;1.35;;;23.30;78.30;;;;;;10494429;28;20102;-33
2023/09/23 20:41:06;;;;;;;2.40;1.30;;;23.20;78.20;;;;;;10498875;28;20131;-43
2023/09/23 20:46:11;;;;;;;4.10;1.08;;;23.20;78.20;;;;;;10504397;28;20045;-36
2023/09/23 20:51:13;;;;;;;2.60;1.05;;;23.20;78.20;;;;;;10506915;28;20067;-41
2023/09/23 20:56:17;;;;;;;5.03;1.20;;;23.20;78.50;;;;;;10514367;28;20087;-35
2023/09/23 21:01:19;;;;;;;4.72;1.08;;;23.10;78.60;;;;;;10510199;28;20076;-32
2023/09/23 21:06:21;;;;;;;5.30;1.35;;;23.10;78.70;;;;;;10507513;28;20490;-40
2023/09/23 21:11:24;;;;;;;7.10;0.80;;;23.10;79.00;;;;;;10515707;28;20075;-33
2023/09/23 21:16:26;;;;;;;3.15;0.93;;;23.10;79.20;;;;;;10501040;28;20485;-34
2023/09/23 21:21:28;;;;;;;10.30;1.00;;;23.00;79.20;;;;;;10495949;28;20121;-34
2023/09/23 21:26:32;;;;;;;6.82;1.17;;;23.00;79.30;;;;;;10506340;28;20063;-33
2023/09/23 21:31:34;;;;;;;5.70;1.27;;;23.00;79.40;;;;;;10491306;28;20454;-42
2023/09/23 21:36:38;;;;;;;;;;;22.90;79.90;;;;;;10504641;28;20048;-34
2023/09/23 21:41:41;;;;;;;3.47;0.90;;;23.00;79.80;;;;;;10500110;28;20339;-37
2023/09/23 21:46:43;;;;;;;4.40;0.93;;;22.90;79.50;;;;;;10474869;28;20126;-32
2023/09/23 21:51:45;;;;;;;9.02;1.23;;;22.90;79.80;;;;;;10488681;28;20086;-41
2023/09/23 21:56:48;;;;;;;9.77;1.35;;;22.90;80.00;;;;;;10501662;28;20079;-42
2023/09/23 22:01:50;;;;;;;5.60;1.10;;;22.90;79.80;;;;;;10511947;28;20052;-39
2023/09/23 22:06:52;;;;;;;3.63;0.80;;;22.80;79.90;;;;;;10493960;28;20049;-38
2023/09/23 22:11:56;;;;;;;3.67;1.08;;;22.60;81.20;;;;;;10498424;28;20072;-42
2023/09/23 22:16:58;;;;;;;4.07;1.25;;;22.60;81.70;;;;;;10489523;28;20582;-38
2023/09/23 22:22:01;;;;;;;5.20;0.88;;;22.60;80.90;;;;;;10486114;28;20121;-40
2023/09/23 22:27:05;;;;;;;5.80;1.38;;;22.70;80.30;;;;;;10487664;28;20048;-34
2023/09/23 22:32:07;;;;;;;2.65;1.10;;;22.50;77.90;;;;;;10484605;28;20036;-36
2023/09/23 22:37:08;;;;;;;;;;;22.30;81.80;;;;;;10492055;28;20131;-32
2023/09/23 22:42:11;;;;;;;4.20;0.83;;;22.20;83.30;;;;;;10491655;28;20011;-35
2023/09/23 22:47:13;;;;;;;7.10;1.90;;;22.00;83.60;;;;;;10491628;28;20060;-34
2023/09/23 22:52:15;;;;;;;2.03;0.80;;;22.00;83.30;;;;;;10491574;28;20119;-35
2023/09/23 22:57:18;;;;;;;2.47;0.70;;;22.20;82.80;;;;;;10487923;28;20468;-36
2023/09/23 23:02:20;;;;;;;2.55;0.70;;;22.40;81.60;;;;;;10493746;28;20055;-35
2023/09/23 23:07:22;;;;;;;2.90;0.88;;;22.40;80.60;;;;;;10490141;28;20068;-34
2023/09/23 23:12:25;;;;;;;4.05;0.82;;;22.50;80.10;;;;;;10490946;28;20145;-36
2023/09/23 23:17:28;;;;;;;1.40;0.70;;;22.30;80.60;;;;;;10489054;28;20044;-36
2023/09/23 23:22:30;;;;;;;2.42;0.75;;;21.90;83.50;;;;;;10491722;28;20053;-37
2023/09/23 23:27:34;;;;;;;3.53;0.93;;;21.70;84.00;;;;;;10486814;28;20051;-32
2023/09/23 23:32:35;;;;;;;5.10;0.98;;;22.10;81.90;;;;;;10504217;28;20214;-34
2023/09/23 23:37:38;;;;;;;3.13;0.90;;;21.80;82.10;;;;;;10496148;28;20055;-34
2023/09/23 23:42:41;;;;;;;3.58;0.73;;;21.90;83.40;;;;;;10507792;28;20053;-35
2023/09/23 23:47:43;;;;;;;3.22;1.02;;;22.10;80.50;;;;;;10498335;28;20135;-39
2023/09/23 23:52:47;;;;;;;2.35;0.80;;;22.20;79.70;;;;;;10512797;28;20044;-33
2023/09/23 23:57:51;;;;;;;3.33;0.60;;;21.90;78.20;;;;;;10507929;28;20058;-35
